sensor_id;sensor_type;location;lat;lon;timestamp;pressure;altitude;pressure_sealevel;temperature;humidity
25869;BME280;13688;53.154;18.136;2023-02-13T00:01:31;102791.91;;;4.06;100.00
25869;BME280;13688;53.154;18.136;2023-02-13T00:06:54;102787.52;;;4.01;100.00
25869;BME280;13688;53.154;18.136;2023-02-13T00:12:16;102791.94;;;4.02;100.00
25869;BME280;13688;53.154;18.136;2023-02-13T00:17:39;102778.66;;;4.01;100.00
25869;BME280;13688;53.154;18.136;2023-02-13T00:23:03;102779.55;;;4.01;100.00
25869;BME280;13688;53.154;18.136;2023-02-13T00:28:26;102775.97;;;4.02;100.00
25869;BME280;13688;53.154;18.136;2023-02-13T00:33:49;102773.34;;;4.01;100.00
25869;BME280;13688;53.154;18.136;2023-02-13T00:39:12;102772.43;;;4.02;100.00
25869;BME280;13688;53.154;18.136;2023-02-13T00:44:34;102769.84;;;3.99;100.00
25869;BME280;13688;53.154;18.136;2023-02-13T00:49:56;102766.33;;;3.97;100.00
25869;BME280;13688;53.154;18.136;2023-02-13T00:55:19;102759.28;;;3.93;100.00
25869;BME280;13688;53.154;18.136;2023-02-13T01:00:42;102762.89;;;3.90;100.00
25869;BME280;13688;53.154;18.136;2023-02-13T01:06:06;102762.05;;;3.88;100.00
25869;BME280;13688;53.154;18.136;2023-02-13T01:11:28;102744.35;;;3.84;100.00
25869;BME280;13688;53.154;18.136;2023-02-13T01:16:51;102755.00;;;3.84;100.00
25869;BME280;13688;53.154;18.136;2023-02-13T01:22:14;102745.23;;;3.85;100.00
25869;BME280;13688;53.154;18.136;2023-02-13T01:27:37;102746.11;;;3.87;100.00
25869;BME280;13688;53.154;18.136;2023-02-13T01:32:59;102746.11;;;3.85;100.00
25869;BME280;13688;53.154;18.136;2023-02-13T01:38:21;102747.92;;;3.83;100.00
25869;BME280;13688;53.154;18.136;2023-02-13T01:43:54;102742.72;;;3.76;100.00
25869;BME280;13688;53.154;18.136;2023-02-13T01:49:24;102743.66;;;3.73;100.00
25869;BME280;13688;53.154;18.136;2023-02-13T01:54:47;102730.33;;;3.74;100.00
25869;BME280;13688;53.154;18.136;2023-02-13T02:00:13;102727.73;;;3.71;100.00
25869;BME280;13688;53.154;18.136;2023-02-13T02:05:37;102729.42;;;3.76;100.00
25869;BME280;13688;53.154;18.136;2023-02-13T02:11:04;102720.59;;;3.73;100.00
25869;BME280;13688;53.154;18.136;2023-02-13T02:16:27;102723.32;;;3.70;100.00
25869;BME280;13688;53.154;18.136;2023-02-13T02:22:45;102721.59;;;3.68;100.00
25869;BME280;13688;53.154;18.136;2023-02-13T02:27:39;102726.83;;;3.72;100.00
25869;BME280;13688;53.154;18.136;2023-02-13T02:39:09;102724.13;;;3.74;100.00
25869;BME280;13688;53.154;18.136;2023-02-13T02:50:32;102728.55;;;3.75;100.00
25869;BME280;13688;53.154;18.136;2023-02-13T02:56:19;102723.97;;;3.83;100.00
25869;BME280;13688;53.154;18.136;2023-02-13T03:01:44;102725.69;;;3.86;100.00
25869;BME280;13688;53.154;18.136;2023-02-13T03:07:29;102726.57;;;3.88;100.00
25869;BME280;13688;53.154;18.136;2023-02-13T03:12:58;102727.34;;;3.93;100.00
25869;BME280;13688;53.154;18.136;2023-02-13T03:18:34;102719.33;;;3.94;100.00
25869;BME280;13688;53.154;18.136;2023-02-13T03:24:22;102722.91;;;3.93;98.89
25869;BME280;13688;53.154;18.136;2023-02-13T03:30:01;102726.60;;;3.85;97.90
25869;BME280;13688;53.154;18.136;2023-02-13T03:42:07;102737.44;;;3.74;97.34
25869;BME280;13688;53.154;18.136;2023-02-13T03:47:34;102745.51;;;3.69;97.35
25869;BME280;13688;53.154;18.136;2023-02-13T03:53:02;102745.45;;;3.72;97.68
25869;BME280;13688;53.154;18.136;2023-02-13T03:58:33;102744.48;;;3.78;97.77
25869;BME280;13688;53.154;18.136;2023-02-13T04:10:07;102749.64;;;3.86;96.94
25869;BME280;13688;53.154;18.136;2023-02-13T04:15:50;102748.73;;;3.88;96.64
25869;BME280;13688;53.154;18.136;2023-02-13T04:21:19;102752.14;;;3.95;96.65
25869;BME280;13688;53.154;18.136;2023-02-13T04:26:45;102745.07;;;3.94;96.52
25869;BME280;13688;53.154;18.136;2023-02-13T04:32:10;102742.44;;;3.92;96.67
25869;BME280;13688;53.154;18.136;2023-02-13T04:37:34;102742.44;;;3.92;96.84
25869;BME280;13688;53.154;18.136;2023-02-13T04:42:58;102743.45;;;3.85;96.91
25869;BME280;13688;53.154;18.136;2023-02-13T04:48:23;102746.01;;;3.91;97.26
25869;BME280;13688;53.154;18.136;2023-02-13T04:53:47;102734.55;;;3.88;97.36
25869;BME280;13688;53.154;18.136;2023-02-13T04:59:11;102741.59;;;3.90;97.58
25869;BME280;13688;53.154;18.136;2023-02-13T05:04:35;102740.62;;;3.94;97.81
25869;BME280;13688;53.154;18.136;2023-02-13T05:10:00;102737.89;;;3.99;97.93
25869;BME280;13688;53.154;18.136;2023-02-13T05:15:26;102738.80;;;3.98;97.95
25869;BME280;13688;53.154;18.136;2023-02-13T05:20:50;102750.27;;;4.01;97.85
25869;BME280;13688;53.154;18.136;2023-02-13T05:26:32;102743.22;;;3.99;97.58
25869;BME280;13688;53.154;18.136;2023-02-13T05:31:58;102748.54;;;3.99;97.35
25869;BME280;13688;53.154;18.136;2023-02-13T05:37:23;102757.41;;;3.99;97.08
25869;BME280;13688;53.154;18.136;2023-02-13T05:42:47;102747.63;;;4.00;96.88
25869;BME280;13688;53.154;18.136;2023-02-13T05:48:11;102752.98;;;3.98;96.65
25869;BME280;13688;53.154;18.136;2023-02-13T05:53:36;102733.55;;;3.93;96.54
25869;BME280;13688;53.154;18.136;2023-02-13T05:58:59;102737.05;;;3.95;96.53
25869;BME280;13688;53.154;18.136;2023-02-13T06:04:22;102741.50;;;3.96;96.38
25869;BME280;13688;53.154;18.136;2023-02-13T06:09:47;102739.00;;;3.87;96.06
25869;BME280;13688;53.154;18.136;2023-02-13T06:15:12;102741.63;;;3.89;96.05
25869;BME280;13688;53.154;18.136;2023-02-13T06:20:36;102742.50;;;3.89;95.95
25869;BME280;13688;53.154;18.136;2023-02-13T06:26:04;102746.08;;;3.88;95.69
25869;BME280;13688;53.154;18.136;2023-02-13T06:31:29;102764.73;;;3.85;95.35
25869;BME280;13688;53.154;18.136;2023-02-13T06:36:54;102756.88;;;3.79;95.14
25869;BME280;13688;53.154;18.136;2023-02-13T06:42:18;102772.84;;;3.79;95.16
25869;BME280;13688;53.154;18.136;2023-02-13T06:47:42;102763.73;;;3.92;95.19
25869;BME280;13688;53.154;18.136;2023-02-13T06:53:07;102770.84;;;3.92;94.59
25869;BME280;13688;53.154;18.136;2023-02-13T06:58:31;102764.52;;;3.99;93.92
25869;BME280;13688;53.154;18.136;2023-02-13T07:03:54;102783.20;;;3.94;93.12
25869;BME280;13688;53.154;18.136;2023-02-13T07:09:17;102780.58;;;3.93;92.67
25869;BME280;13688;53.154;18.136;2023-02-13T07:14:39;102773.34;;;4.01;92.42
25869;BME280;13688;53.154;18.136;2023-02-13T07:20:03;102783.11;;;4.00;91.89
25869;BME280;13688;53.154;18.136;2023-02-13T07:25:26;102776.88;;;4.01;91.43
25869;BME280;13688;53.154;18.136;2023-02-13T07:30:49;102779.45;;;4.08;91.08
25869;BME280;13688;53.154;18.136;2023-02-13T07:36:12;102766.95;;;4.11;90.54
25869;BME280;13688;53.154;18.136;2023-02-13T07:41:35;102773.95;;;4.17;89.86
25869;BME280;13688;53.154;18.136;2023-02-13T07:46:57;102771.09;;;4.27;89.17
25869;BME280;13688;53.154;18.136;2023-02-13T07:52:19;102775.30;;;4.39;88.19
25869;BME280;13688;53.154;18.136;2023-02-13T07:57:42;102777.05;;;4.40;87.16
25869;BME280;13688;53.154;18.136;2023-02-13T08:03:04;102764.55;;;4.44;86.46
25869;BME280;13688;53.154;18.136;2023-02-13T08:08:27;102757.31;;;4.50;85.74
25869;BME280;13688;53.154;18.136;2023-02-13T08:13:50;102757.25;;;4.53;85.02
25869;BME280;13688;53.154;18.136;2023-02-13T08:19:12;102757.25;;;4.53;84.53
25869;BME280;13688;53.154;18.136;2023-02-13T08:24:34;102759.84;;;4.58;84.20
25869;BME280;13688;53.154;18.136;2023-02-13T08:29:57;102737.57;;;4.60;83.83
25869;BME280;13688;53.154;18.136;2023-02-13T08:35:22;102739.25;;;4.66;83.33
25869;BME280;13688;53.154;18.136;2023-02-13T08:40:44;102733.88;;;4.68;82.85
25869;BME280;13688;53.154;18.136;2023-02-13T08:46:07;102744.50;;;4.69;82.61
25869;BME280;13688;53.154;18.136;2023-02-13T08:51:31;102731.09;;;4.74;82.16
25869;BME280;13688;53.154;18.136;2023-02-13T08:56:53;102744.31;;;4.78;81.64
25869;BME280;13688;53.154;18.136;2023-02-13T09:02:18;102729.16;;;4.80;81.17
25869;BME280;13688;53.154;18.136;2023-02-13T09:07:40;102745.98;;;4.84;80.90
25869;BME280;13688;53.154;18.136;2023-02-13T09:13:03;102761.09;;;4.83;80.63
25869;BME280;13688;53.154;18.136;2023-02-13T09:18:26;102737.91;;;4.87;80.37
25869;BME280;13688;53.154;18.136;2023-02-13T09:23:49;102746.73;;;4.89;80.18
25869;BME280;13688;53.154;18.136;2023-02-13T09:29:11;102743.16;;;4.90;79.99
25869;BME280;13688;53.154;18.136;2023-02-13T09:34:34;102751.08;;;4.95;79.82
25869;BME280;13688;53.154;18.136;2023-02-13T09:39:56;102735.04;;;4.96;79.71
25869;BME280;13688;53.154;18.136;2023-02-13T09:45:20;102748.30;;;4.99;79.64
25869;BME280;13688;53.154;18.136;2023-02-13T09:50:44;102745.59;;;5.01;79.43
25869;BME280;13688;53.154;18.136;2023-02-13T09:56:15;102739.30;;;5.05;79.19
25869;BME280;13688;53.154;18.136;2023-02-13T10:01:47;102756.92;;;5.10;78.95
25869;BME280;13688;53.154;18.136;2023-02-13T10:07:38;102744.34;;;5.17;78.79
25869;BME280;13688;53.154;18.136;2023-02-13T10:13:06;102751.42;;;5.18;78.63
25869;BME280;13688;53.154;18.136;2023-02-13T10:18:49;102748.67;;;5.23;78.42
25869;BME280;13688;53.154;18.136;2023-02-13T10:24:20;102739.75;;;5.24;78.20
25869;BME280;13688;53.154;18.136;2023-02-13T10:35:38;102758.17;;;5.34;77.56
25869;BME280;13688;53.154;18.136;2023-02-13T10:46:50;102740.46;;;5.30;77.51
25869;BME280;13688;53.154;18.136;2023-02-13T11:04:00;102727.61;;;5.48;76.51
25869;BME280;13688;53.154;18.136;2023-02-13T11:09:25;102723.14;;;5.48;75.79
25869;BME280;13688;53.154;18.136;2023-02-13T11:14:57;102725.67;;;5.54;75.47
25869;BME280;13688;53.154;18.136;2023-02-13T11:20:36;102723.52;;;5.68;75.62
25869;BME280;13688;53.154;18.136;2023-02-13T11:26:07;102712.25;;;5.57;74.77
25869;BME280;13688;53.154;18.136;2023-02-13T11:31:42;102697.97;;;5.60;74.49
25869;BME280;13688;53.154;18.136;2023-02-13T11:37:22;102697.97;;;5.60;74.15
25869;BME280;13688;53.154;18.136;2023-02-13T11:42:46;102710.41;;;5.59;73.95
25869;BME280;13688;53.154;18.136;2023-02-13T11:48:19;102701.52;;;5.60;73.87
25869;BME280;13688;53.154;18.136;2023-02-13T11:53:43;102702.34;;;5.62;73.84
25869;BME280;13688;53.154;18.136;2023-02-13T11:59:10;102693.42;;;5.63;73.67
25869;BME280;13688;53.154;18.136;2023-02-13T12:04:31;102691.54;;;5.67;73.53
25869;BME280;13688;53.154;18.136;2023-02-13T12:15:35;102690.63;;;5.68;72.94
25869;BME280;13688;53.154;18.136;2023-02-13T12:21:28;102663.01;;;5.69;72.75
25869;BME280;13688;53.154;18.136;2023-02-13T12:27:05;102659.41;;;5.71;72.83
25869;BME280;13688;53.154;18.136;2023-02-13T12:44:42;102620.31;;;5.69;72.87
25869;BME280;13688;53.154;18.136;2023-02-13T12:50:33;102650.48;;;5.72;72.85
25869;BME280;13688;53.154;18.136;2023-02-13T12:56:07;102643.21;;;5.78;72.92
25869;BME280;13688;53.154;18.136;2023-02-13T13:13:56;102631.66;;;5.77;72.58
25869;BME280;13688;53.154;18.136;2023-02-13T13:25:51;102659.31;;;5.74;72.40
25869;BME280;13688;53.154;18.136;2023-02-13T13:31:17;102663.01;;;5.69;72.47
25869;BME280;13688;53.154;18.136;2023-02-13T13:42:58;102629.23;;;5.68;73.13
25869;BME280;13688;53.154;18.136;2023-02-13T13:54:32;102643.97;;;5.50;72.78
25869;BME280;13688;53.154;18.136;2023-02-13T13:59:55;102634.27;;;5.46;72.83
25869;BME280;13688;53.154;18.136;2023-02-13T14:05:28;102654.01;;;5.39;72.91
25869;BME280;13688;53.154;18.136;2023-02-13T14:16:38;102657.59;;;5.38;71.24
25869;BME280;13688;53.154;18.136;2023-02-13T14:22:31;102670.98;;;5.36;70.61
25869;BME280;13688;53.154;18.136;2023-02-13T14:28:00;102663.10;;;5.32;69.87
25869;BME280;13688;53.154;18.136;2023-02-13T14:33:28;102663.06;;;5.33;69.12
25869;BME280;13688;53.154;18.136;2023-02-13T14:38:56;102658.78;;;5.26;68.84
25869;BME280;13688;53.154;18.136;2023-02-13T14:44:50;102643.47;;;5.34;69.25
25869;BME280;13688;53.154;18.136;2023-02-13T14:50:17;102650.92;;;5.20;68.49
25869;BME280;13688;53.154;18.136;2023-02-13T14:55:38;102639.42;;;5.18;68.66
25869;BME280;13688;53.154;18.136;2023-02-13T15:01:06;102663.47;;;5.16;68.81
25869;BME280;13688;53.154;18.136;2023-02-13T15:06:48;102648.47;;;5.12;68.82
25869;BME280;13688;53.154;18.136;2023-02-13T15:12:34;102617.35;;;5.11;68.56
25869;BME280;13688;53.154;18.136;2023-02-13T15:17:56;102617.44;;;5.08;68.46
25869;BME280;13688;53.154;18.136;2023-02-13T15:23:24;102610.36;;;5.07;68.49
25869;BME280;13688;53.154;18.136;2023-02-13T15:28:59;102608.66;;;5.05;68.50
25869;BME280;13688;53.154;18.136;2023-02-13T15:34:35;102598.95;;;5.01;68.59
25869;BME280;13688;53.154;18.136;2023-02-13T15:40:13;102602.55;;;5.00;68.79
25869;BME280;13688;53.154;18.136;2023-02-13T15:45:37;102605.38;;;4.94;69.09
25869;BME280;13688;53.154;18.136;2023-02-13T15:51:03;102588.47;;;4.95;69.21
25869;BME280;13688;53.154;18.136;2023-02-13T15:56:26;102593.06;;;4.88;69.46
25869;BME280;13688;53.154;18.136;2023-02-13T16:01:49;102589.86;;;4.74;69.73
25869;BME280;13688;53.154;18.136;2023-02-13T16:07:15;102591.00;;;4.62;70.29
25869;BME280;13688;53.154;18.136;2023-02-13T16:12:42;102604.64;;;4.48;70.59
25869;BME280;13688;53.154;18.136;2023-02-13T16:18:03;102608.55;;;4.32;71.24
25869;BME280;13688;53.154;18.136;2023-02-13T16:23:29;102618.28;;;4.35;71.77
25869;BME280;13688;53.154;18.136;2023-02-13T16:28:53;102625.36;;;4.36;72.03
25869;BME280;13688;53.154;18.136;2023-02-13T16:34:27;102633.27;;;4.39;72.18
25869;BME280;13688;53.154;18.136;2023-02-13T16:39:51;102628.50;;;4.53;71.97
25869;BME280;13688;53.154;18.136;2023-02-13T16:45:30;102616.17;;;4.49;71.66
25869;BME280;13688;53.154;18.136;2023-02-13T16:50:56;102599.64;;;4.35;72.15
25869;BME280;13688;53.154;18.136;2023-02-13T16:56:18;102612.35;;;4.20;72.71
25869;BME280;13688;53.154;18.136;2023-02-13T17:01:41;102615.39;;;4.02;73.31
25869;BME280;13688;53.154;18.136;2023-02-13T17:07:07;102614.77;;;3.89;74.05
25869;BME280;13688;53.154;18.136;2023-02-13T17:12:31;102615.05;;;3.74;74.76
25869;BME280;13688;53.154;18.136;2023-02-13T17:17:55;102612.56;;;3.65;75.33
25869;BME280;13688;53.154;18.136;2023-02-13T17:23:20;102618.19;;;3.50;75.93
25869;BME280;13688;53.154;18.136;2023-02-13T17:28:43;102612.83;;;3.51;76.59
25869;BME280;13688;53.154;18.136;2023-02-13T17:34:05;102604.05;;;3.46;76.90
25869;BME280;13688;53.154;18.136;2023-02-13T17:39:27;102614.48;;;3.58;77.12
25869;BME280;13688;53.154;18.136;2023-02-13T17:44:54;102618.83;;;3.62;76.91
25869;BME280;13688;53.154;18.136;2023-02-13T17:50:16;102627.64;;;3.64;76.86
25869;BME280;13688;53.154;18.136;2023-02-13T17:55:39;102654.25;;;3.64;76.83
25869;BME280;13688;53.154;18.136;2023-02-13T18:01:01;102655.09;;;3.66;76.98
25869;BME280;13688;53.154;18.136;2023-02-13T18:06:25;102659.34;;;3.78;76.85
25869;BME280;13688;53.154;18.136;2023-02-13T18:11:48;102668.06;;;3.85;76.77
25869;BME280;13688;53.154;18.136;2023-02-13T18:17:12;102681.23;;;3.92;76.54
25869;BME280;13688;53.154;18.136;2023-02-13T18:22:35;102682.03;;;3.97;76.26
25869;BME280;13688;53.154;18.136;2023-02-13T18:28:07;102688.09;;;4.06;75.94
25869;BME280;13688;53.154;18.136;2023-02-13T18:33:30;102697.23;;;3.91;76.28
25869;BME280;13688;53.154;18.136;2023-02-13T18:38:55;102699.98;;;3.86;76.42
25869;BME280;13688;53.154;18.136;2023-02-13T18:44:18;102707.94;;;3.88;76.68
25869;BME280;13688;53.154;18.136;2023-02-13T18:49:40;102703.53;;;3.85;76.74
25869;BME280;13688;53.154;18.136;2023-02-13T18:55:03;102703.59;;;3.82;76.82
25869;BME280;13688;53.154;18.136;2023-02-13T19:00:26;102696.75;;;3.69;77.03
25869;BME280;13688;53.154;18.136;2023-02-13T19:05:49;102698.66;;;3.61;77.50
25869;BME280;13688;53.154;18.136;2023-02-13T19:11:14;102705.09;;;3.48;77.98
25869;BME280;13688;53.154;18.136;2023-02-13T19:16:39;102705.30;;;3.34;78.46
25869;BME280;13688;53.154;18.136;2023-02-13T19:22:02;102700.36;;;3.11;79.05
25869;BME280;13688;53.154;18.136;2023-02-13T19:27:25;102695.04;;;3.11;79.76
25869;BME280;13688;53.154;18.136;2023-02-13T19:32:52;102704.38;;;2.76;80.12
25869;BME280;13688;53.154;18.136;2023-02-13T19:38:17;102707.27;;;2.61;81.01
25869;BME280;13688;53.154;18.136;2023-02-13T19:43:40;102706.67;;;2.36;81.80
25869;BME280;13688;53.154;18.136;2023-02-13T19:49:03;102703.20;;;2.29;82.85
25869;BME280;13688;53.154;18.136;2023-02-13T19:54:27;102712.21;;;2.16;83.59
25869;BME280;13688;53.154;18.136;2023-02-13T19:59:50;102714.89;;;2.15;84.32
25869;BME280;13688;53.154;18.136;2023-02-13T20:05:14;102714.09;;;2.07;84.88
25869;BME280;13688;53.154;18.136;2023-02-13T20:10:41;102730.03;;;2.02;85.42
25869;BME280;13688;53.154;18.136;2023-02-13T20:16:04;102732.73;;;1.99;85.89
25869;BME280;13688;53.154;18.136;2023-02-13T20:21:27;102734.59;;;1.89;86.27
25869;BME280;13688;53.154;18.136;2023-02-13T20:26:50;102747.90;;;1.83;86.80
25869;BME280;13688;53.154;18.136;2023-02-13T20:32:13;102741.76;;;1.80;87.36
25869;BME280;13688;53.154;18.136;2023-02-13T20:37:37;102744.42;;;1.78;87.91
25869;BME280;13688;53.154;18.136;2023-02-13T20:43:00;102748.87;;;1.73;88.40
25869;BME280;13688;53.154;18.136;2023-02-13T20:48:22;102756.91;;;1.64;88.79
25869;BME280;13688;53.154;18.136;2023-02-13T20:53:46;102755.22;;;1.54;89.25
25869;BME280;13688;53.154;18.136;2023-02-13T20:59:10;102755.29;;;1.44;89.78
25869;BME280;13688;53.154;18.136;2023-02-13T21:04:32;102756.23;;;1.39;90.42
25869;BME280;13688;53.154;18.136;2023-02-13T21:09:55;102747.48;;;1.28;91.00
25869;BME280;13688;53.154;18.136;2023-02-13T21:15:19;102745.83;;;1.10;91.52
25869;BME280;13688;53.154;18.136;2023-02-13T21:20:43;102750.30;;;0.96;92.24
25869;BME280;13688;53.154;18.136;2023-02-13T21:26:11;102745.02;;;0.94;93.17
25869;BME280;13688;53.154;18.136;2023-02-13T21:31:37;102749.42;;;1.00;94.15
25869;BME280;13688;53.154;18.136;2023-02-13T21:37:00;102764.44;;;0.95;94.87
25869;BME280;13688;53.154;18.136;2023-02-13T21:42:23;102760.09;;;0.88;95.45
25869;BME280;13688;53.154;18.136;2023-02-13T21:47:45;102753.06;;;0.79;95.99
25869;BME280;13688;53.154;18.136;2023-02-13T21:53:09;102749.53;;;0.75;96.60
25869;BME280;13688;53.154;18.136;2023-02-13T21:58:34;102747.80;;;0.67;97.17
25869;BME280;13688;53.154;18.136;2023-02-13T22:03:58;102751.38;;;0.60;97.77
25869;BME280;13688;53.154;18.136;2023-02-13T22:09:23;102758.41;;;0.68;98.49
25869;BME280;13688;53.154;18.136;2023-02-13T22:14:46;102753.95;;;0.75;99.23
25869;BME280;13688;53.154;18.136;2023-02-13T22:20:10;102752.14;;;0.83;99.84
25869;BME280;13688;53.154;18.136;2023-02-13T22:25:33;102752.97;;;0.97;100.00
25869;BME280;13688;53.154;18.136;2023-02-13T22:30:58;102739.63;;;1.12;100.00
25869;BME280;13688;53.154;18.136;2023-02-13T22:36:25;102747.56;;;1.17;100.00
25869;BME280;13688;53.154;18.136;2023-02-13T22:41:49;102751.87;;;1.30;99.53
25869;BME280;13688;53.154;18.136;2023-02-13T22:47:11;102745.70;;;1.30;98.64
25869;BME280;13688;53.154;18.136;2023-02-13T22:52:33;102750.95;;;1.37;97.85
25869;BME280;13688;53.154;18.136;2023-02-13T22:57:56;102750.96;;;1.33;96.95
25869;BME280;13688;53.154;18.136;2023-02-13T23:03:19;102745.71;;;1.28;96.22
25869;BME280;13688;53.154;18.136;2023-02-13T23:08:43;102750.99;;;1.30;95.80
25869;BME280;13688;53.154;18.136;2023-02-13T23:14:07;102752.78;;;1.25;95.52
25869;BME280;13688;53.154;18.136;2023-02-13T23:19:31;102752.84;;;1.15;95.37
25869;BME280;13688;53.154;18.136;2023-02-13T23:24:55;102749.35;;;1.10;95.39
25869;BME280;13688;53.154;18.136;2023-02-13T23:30:18;102760.84;;;1.09;95.60
25869;BME280;13688;53.154;18.136;2023-02-13T23:35:41;102761.78;;;0.96;95.76
25869;BME280;13688;53.154;18.136;2023-02-13T23:41:06;102762.69;;;0.94;96.15
25869;BME280;13688;53.154;18.136;2023-02-13T23:46:28;102779.48;;;0.91;96.56
25869;BME280;13688;53.154;18.136;2023-02-13T23:51:51;102793.64;;;0.87;96.95
25869;BME280;13688;53.154;18.136;2023-02-13T23:57:15;102790.08;;;0.86;97.38
